Craigmyle, Canada
Current Conditions -  °F | °C
As of 2:00 AM on Thursday 23 Oct 2014 (Local Time) from CYQF Reporting Station
Overcast Overcast  
Wind Chill: 35°   Ceiling: 15000
Heat Index: 39°   Visibility: 15mi
Dew Point: 32°   Wind: 6mph
Humidity: 75%   Direction: 210°SSW
Pressure: 29.53"   Gusts: NA
Location:  51.67°N, 112.23°W
Report Text: CYQF 230800Z 21005KT 15SM BKN150 OVC220 04/00 A2953 RMK AC5CI3 SLP015
Loading
Personal Weather Stations






























Interactive Weather Map
Tropical Storm Tracking
New forecast layout! Learn more

10-Day Weather Forecast

Advertisements
Track Severe Weather on mobile